createdAt,value
2018-09-18T00:02:20.331Z,20.77
2018-09-18T00:04:48.746Z,20.83
2018-09-18T00:07:17.149Z,20.90
2018-09-18T00:09:45.543Z,20.85
2018-09-18T00:12:13.933Z,20.71
2018-09-18T00:14:42.349Z,20.78
2018-09-18T00:17:10.753Z,20.82
2018-09-18T00:19:39.197Z,20.70
2018-09-18T00:22:07.585Z,20.55
2018-09-18T00:24:36.003Z,20.52
2018-09-18T00:27:04.382Z,20.53
2018-09-18T00:29:32.791Z,20.59
2018-09-18T00:32:01.181Z,20.54
2018-09-18T00:34:29.622Z,20.61
2018-09-18T00:36:57.998Z,20.62
2018-09-18T00:39:26.474Z,20.62
2018-09-18T00:41:54.849Z,20.72
2018-09-18T00:44:23.297Z,20.65
2018-09-18T00:46:51.681Z,20.67
2018-09-18T00:49:20.065Z,20.64
2018-09-18T00:51:48.473Z,20.57
2018-09-18T00:54:16.852Z,20.46
2018-09-18T00:56:45.266Z,20.39
2018-09-18T00:59:13.666Z,20.36
2018-09-18T01:01:42.069Z,20.29
2018-09-18T01:04:10.457Z,20.28
2018-09-18T01:06:38.890Z,20.29
2018-09-18T01:09:08.877Z,20.42
2018-09-18T01:11:37.289Z,20.36
2018-09-18T01:14:05.685Z,20.23
2018-09-18T01:16:34.097Z,20.18
2018-09-18T01:19:02.916Z,20.23
2018-09-18T01:21:31.337Z,20.15
2018-09-18T01:23:59.711Z,20.21
2018-09-18T01:26:28.125Z,20.22
2018-09-18T01:28:56.510Z,20.17
2018-09-18T01:31:24.938Z,20.22
2018-09-18T01:33:53.336Z,20.25
2018-09-18T01:36:21.729Z,20.32
2018-09-18T01:38:50.140Z,20.17
2018-09-18T01:41:18.521Z,20.15
2018-09-18T01:43:46.971Z,20.18
2018-09-18T01:46:15.401Z,20.25
2018-09-18T01:48:43.809Z,20.12
2018-09-18T01:51:12.202Z,20.10
2018-09-18T01:53:40.637Z,20.00
2018-09-18T01:56:09.097Z,19.88
2018-09-18T01:58:37.508Z,19.94
2018-09-18T02:01:05.937Z,20.02
2018-09-18T02:03:34.364Z,20.02
2018-09-18T02:06:02.790Z,20.01
2018-09-18T02:08:31.270Z,20.01
2018-09-18T02:10:59.650Z,20.01
2018-09-18T02:13:28.069Z,19.96
2018-09-18T02:15:56.441Z,19.98
2018-09-18T02:18:24.861Z,19.88
2018-09-18T02:20:53.313Z,19.90
2018-09-18T02:23:21.773Z,19.89
2018-09-18T02:25:50.165Z,19.96
2018-09-18T02:28:18.541Z,19.96
2018-09-18T02:30:46.974Z,19.93
2018-09-18T02:33:15.346Z,19.93
2018-09-18T02:35:43.766Z,20.01
2018-09-18T02:38:12.160Z,20.14
2018-09-18T02:40:40.590Z,20.09
2018-09-18T02:43:08.965Z,20.10
2018-09-18T02:45:37.376Z,20.02
2018-09-18T02:48:06.082Z,19.95
2018-09-18T02:50:34.533Z,19.91
2018-09-18T02:53:03.710Z,19.94
2018-09-18T02:55:32.130Z,19.97
2018-09-18T02:58:00.522Z,19.79
2018-09-18T03:00:28.949Z,19.76
2018-09-18T03:02:57.327Z,19.73
2018-09-18T03:05:25.770Z,19.75
2018-09-18T03:07:54.169Z,19.78
2018-09-18T03:10:22.577Z,19.71
2018-09-18T03:12:50.961Z,19.75
2018-09-18T03:15:19.458Z,19.76
2018-09-18T03:17:47.871Z,19.70
2018-09-18T03:20:16.378Z,19.66
2018-09-18T03:22:44.805Z,19.72
2018-09-18T03:25:13.185Z,19.78
2018-09-18T03:27:41.618Z,19.84
2018-09-18T03:30:10.038Z,19.75
2018-09-18T03:32:38.513Z,19.74
2018-09-18T03:35:06.910Z,19.75
2018-09-18T03:37:35.357Z,19.74
2018-09-18T03:40:04.337Z,19.76
2018-09-18T03:42:32.754Z,19.78
2018-09-18T03:45:01.134Z,19.72
2018-09-18T03:47:29.548Z,19.67
2018-09-18T03:49:57.922Z,19.75
2018-09-18T03:52:26.348Z,19.71
2018-09-18T03:54:54.717Z,19.73
2018-09-18T03:57:23.128Z,19.71
2018-09-18T03:59:51.505Z,19.66
2018-09-18T04:02:19.926Z,19.63
2018-09-18T04:04:48.309Z,19.65
2018-09-18T04:07:16.751Z,19.63
2018-09-18T04:09:45.138Z,19.67
2018-09-18T04:12:13.593Z,19.64
2018-09-18T04:14:41.969Z,19.50
2018-09-18T04:17:10.349Z,19.40
2018-09-18T04:19:38.793Z,19.45
2018-09-18T04:22:07.173Z,19.47
2018-09-18T04:24:35.610Z,19.50
2018-09-18T04:27:04.001Z,19.39
2018-09-18T04:29:32.418Z,19.39
2018-09-18T04:32:00.793Z,19.42
2018-09-18T04:34:29.218Z,19.43
2018-09-18T04:36:57.615Z,19.47
2018-09-18T04:39:26.029Z,19.41
2018-09-18T04:41:54.409Z,19.40
2018-09-18T04:44:22.817Z,19.35
2018-09-18T04:46:51.212Z,19.35
2018-09-18T04:49:19.645Z,19.24
2018-09-18T04:51:48.046Z,19.27
2018-09-18T04:54:16.481Z,19.22
2018-09-18T04:56:44.869Z,19.27
2018-09-18T04:59:13.290Z,19.36
2018-09-18T05:01:41.718Z,19.24
2018-09-18T05:04:10.133Z,19.33
2018-09-18T05:06:38.538Z,19.40
2018-09-18T05:09:09.106Z,19.24
2018-09-18T05:11:37.498Z,19.13
2018-09-18T05:14:06.060Z,19.17
2018-09-18T05:16:34.939Z,19.20
2018-09-18T05:19:03.464Z,19.28
2018-09-18T05:21:31.887Z,19.31
2018-09-18T05:24:00.277Z,19.31
2018-09-18T05:26:28.701Z,19.32
2018-09-18T05:28:57.089Z,19.35
2018-09-18T05:31:25.533Z,19.36
2018-09-18T05:33:53.922Z,19.42
2018-09-18T05:36:22.340Z,19.41
2018-09-18T05:38:50.720Z,19.37
2018-09-18T05:41:19.153Z,19.32
2018-09-18T05:43:47.541Z,19.23
2018-09-18T05:46:16.094Z,19.20
2018-09-18T05:48:44.482Z,19.12
2018-09-18T05:51:12.893Z,19.19
2018-09-18T05:53:41.381Z,19.26
2018-09-18T05:56:09.841Z,19.23
2018-09-18T05:58:38.229Z,19.21
2018-09-18T06:01:06.644Z,19.21
2018-09-18T06:03:35.054Z,19.12
2018-09-18T06:06:03.476Z,19.06
2018-09-18T06:08:31.894Z,18.99
2018-09-18T06:11:00.275Z,18.94
2018-09-18T06:13:28.689Z,18.86
2018-09-18T06:15:57.077Z,18.84
2018-09-18T06:18:25.508Z,18.87
2018-09-18T06:20:53.897Z,18.87
2018-09-18T06:23:22.353Z,18.90
2018-09-18T06:25:50.803Z,19.02
2018-09-18T06:28:19.225Z,19.02
2018-09-18T06:30:47.694Z,19.13
2018-09-18T06:33:16.334Z,19.24
2018-09-18T06:35:44.747Z,19.32
2018-09-18T06:38:13.168Z,19.49
2018-09-18T06:40:41.561Z,19.59
2018-09-18T06:43:10.138Z,19.71
2018-09-18T06:45:38.565Z,19.88
2018-09-18T06:48:07.104Z,19.98
2018-09-18T06:50:35.446Z,20.16
2018-09-18T06:53:03.850Z,20.29
2018-09-18T06:55:32.293Z,20.38
2018-09-18T06:58:00.697Z,20.52
2018-09-18T07:00:29.141Z,20.62
2018-09-18T07:02:57.517Z,20.74
2018-09-18T07:05:26.056Z,20.79
2018-09-18T07:07:54.536Z,20.85
2018-09-18T07:10:22.942Z,20.95
2018-09-18T07:12:51.365Z,20.98
2018-09-18T07:15:19.785Z,21.07
2018-09-18T07:17:48.148Z,21.11
2018-09-18T07:20:17.884Z,21.16
2018-09-18T07:22:46.257Z,21.22
2018-09-18T07:25:14.685Z,21.31
2018-09-18T07:27:43.094Z,21.36
2018-09-18T07:30:11.493Z,21.48
2018-09-18T07:32:39.873Z,21.62
2018-09-18T07:35:08.393Z,21.75
2018-09-18T07:37:36.773Z,21.88
2018-09-18T07:40:05.210Z,21.96
2018-09-18T07:42:33.577Z,22.08
2018-09-18T07:45:02.019Z,22.17
2018-09-18T07:47:30.421Z,22.32
2018-09-18T07:49:58.789Z,22.48
2018-09-18T07:52:27.198Z,22.60
2018-09-18T07:54:55.577Z,22.73
2018-09-18T07:57:23.989Z,22.85
2018-09-18T07:59:52.366Z,22.94
2018-09-18T08:02:20.781Z,22.92
2018-09-18T08:04:49.226Z,22.91
2018-09-18T08:07:17.662Z,23.02
2018-09-18T08:09:46.030Z,23.12
2018-09-18T08:12:14.441Z,23.27
2018-09-18T08:14:42.802Z,23.35
2018-09-18T08:17:11.217Z,23.31
2018-09-18T08:19:39.778Z,23.35
2018-09-18T08:22:08.164Z,23.36
2018-09-18T08:24:36.532Z,23.43
2018-09-18T08:27:04.953Z,23.55
2018-09-18T08:29:33.322Z,23.70
2018-09-18T08:32:01.782Z,23.87
2018-09-18T08:34:30.253Z,24.02
2018-09-18T08:36:58.645Z,24.19
2018-09-18T08:39:27.029Z,24.19
2018-09-18T08:41:55.400Z,24.22
2018-09-18T08:44:23.812Z,24.24
2018-09-18T08:46:52.227Z,24.25
2018-09-18T08:49:20.642Z,24.23
2018-09-18T08:51:49.113Z,24.35
2018-09-18T08:54:17.467Z,24.46
2018-09-18T08:56:45.855Z,24.59
2018-09-18T08:59:14.270Z,24.70
2018-09-18T09:01:42.703Z,24.89
2018-09-18T09:04:11.099Z,25.03
2018-09-18T09:06:39.550Z,25.16
2018-09-18T09:09:11.679Z,25.19
2018-09-18T09:11:40.057Z,25.24
2018-09-18T09:14:08.519Z,25.28
2018-09-18T09:16:36.963Z,25.21
2018-09-18T09:19:05.407Z,25.18
2018-09-18T09:21:33.862Z,25.19
2018-09-18T09:24:03.016Z,25.25
2018-09-18T09:26:31.423Z,25.29
2018-09-18T09:28:59.868Z,25.34
2018-09-18T09:31:28.262Z,25.46
2018-09-18T09:33:56.768Z,25.60
2018-09-18T09:36:25.161Z,25.71
2018-09-18T09:38:53.676Z,25.75
2018-09-18T09:41:22.042Z,25.71
2018-09-18T09:43:50.437Z,25.69
2018-09-18T09:46:18.858Z,25.70
2018-09-18T09:48:47.229Z,25.65
2018-09-18T09:51:15.730Z,25.66
2018-09-18T09:53:44.066Z,25.65
2018-09-18T09:56:12.507Z,25.71
2018-09-18T09:58:40.898Z,25.79
2018-09-18T10:01:16.746Z,25.79
2018-09-18T10:03:45.137Z,25.84
2018-09-18T10:06:13.539Z,25.92
2018-09-18T10:08:41.913Z,25.87
2018-09-18T10:11:10.321Z,25.86
2018-09-18T10:13:38.716Z,25.92
2018-09-18T10:16:07.130Z,25.96
2018-09-18T10:18:35.591Z,25.94
2018-09-18T10:21:04.038Z,25.95
2018-09-18T10:23:32.430Z,26.02
2018-09-18T10:26:00.959Z,26.03
2018-09-18T10:28:29.353Z,25.98
2018-09-18T10:30:57.777Z,25.99
2018-09-18T10:33:26.178Z,26.09
2018-09-18T10:35:54.549Z,26.09
2018-09-18T10:38:22.988Z,26.16
2018-09-18T10:40:51.404Z,26.18
2018-09-18T10:43:19.861Z,26.18
2018-09-18T10:45:48.256Z,26.25
2018-09-18T10:48:16.716Z,26.34
2018-09-18T10:50:45.106Z,26.39
2018-09-18T10:53:13.596Z,26.36
2018-09-18T10:55:41.962Z,26.28
2018-09-18T10:58:10.386Z,26.32
2018-09-18T11:00:38.806Z,26.39
2018-09-18T11:03:07.245Z,26.36
2018-09-18T11:05:35.688Z,26.36
2018-09-18T11:08:04.353Z,26.35
2018-09-18T11:10:32.827Z,26.44
2018-09-18T11:13:01.991Z,26.55
2018-09-18T11:15:30.463Z,26.65
2018-09-18T11:17:58.863Z,26.63
2018-09-18T11:20:27.323Z,26.62
2018-09-18T11:22:55.757Z,26.64
2018-09-18T11:25:24.178Z,26.59
2018-09-18T11:27:52.546Z,26.62
2018-09-18T11:30:20.980Z,26.59
2018-09-18T11:32:49.420Z,26.62
2018-09-18T11:35:17.806Z,26.66
2018-09-18T11:37:46.177Z,26.70
2018-09-18T11:40:14.614Z,26.76
2018-09-18T11:42:43.103Z,26.82
2018-09-18T11:45:11.509Z,26.86
2018-09-18T11:47:39.921Z,26.86
2018-09-18T11:50:08.366Z,26.84
2018-09-18T11:52:36.748Z,26.72
2018-09-18T11:55:05.198Z,26.73
2018-09-18T11:57:33.804Z,26.74
2018-09-18T12:00:02.268Z,26.71
2018-09-18T12:02:30.641Z,26.74
2018-09-18T12:04:59.072Z,26.81
2018-09-18T12:07:27.441Z,26.79
2018-09-18T12:09:55.869Z,26.84
2018-09-18T12:12:24.269Z,26.84
2018-09-18T12:14:52.893Z,26.88
2018-09-18T12:17:21.265Z,26.87
2018-09-18T12:19:49.734Z,26.81
2018-09-18T12:22:18.263Z,26.77
2018-09-18T12:24:46.633Z,26.82
2018-09-18T12:27:15.048Z,26.77
2018-09-18T12:29:43.469Z,26.80
2018-09-18T12:32:11.961Z,26.87
2018-09-18T12:34:40.429Z,26.95
2018-09-18T12:37:08.873Z,26.99
2018-09-18T12:39:37.309Z,27.03
2018-09-18T12:42:05.853Z,27.10
2018-09-18T12:44:34.522Z,27.06
2018-09-18T12:47:02.997Z,27.02
2018-09-18T12:49:31.492Z,27.02
2018-09-18T12:51:59.932Z,27.05
2018-09-18T12:54:28.651Z,27.14
2018-09-18T12:56:57.183Z,27.19
2018-09-18T12:59:25.911Z,27.26
2018-09-18T13:01:55.602Z,27.32
2018-09-18T13:04:24.025Z,27.40
2018-09-18T13:06:52.505Z,27.49
2018-09-18T13:09:20.878Z,27.65
2018-09-18T13:11:49.405Z,27.69
2018-09-18T13:14:17.927Z,27.72
2018-09-18T13:16:46.242Z,27.80
2018-09-18T13:19:14.695Z,27.93
2018-09-18T13:21:43.170Z,28.06
2018-09-18T13:24:11.770Z,28.18
2018-09-18T13:26:40.148Z,28.25
2018-09-18T13:29:08.575Z,28.25
2018-09-18T13:31:37.693Z,28.27
2018-09-18T13:34:06.103Z,28.33
2018-09-18T13:36:34.661Z,28.39
2018-09-18T13:39:03.818Z,28.47
2018-09-18T13:41:32.238Z,28.57
2018-09-18T13:44:00.698Z,28.66
2018-09-18T13:46:29.189Z,28.72
2018-09-18T13:48:57.553Z,28.81
2018-09-18T13:51:25.952Z,28.92
2018-09-18T13:53:54.414Z,29.01
2018-09-18T13:56:22.917Z,29.15
2018-09-18T13:58:51.325Z,28.98
2018-09-18T14:01:19.743Z,28.82
2018-09-18T14:03:48.401Z,28.94
2018-09-18T14:06:16.845Z,29.17
2018-09-18T14:08:45.254Z,29.41
2018-09-18T14:11:13.621Z,29.63
2018-09-18T14:13:42.006Z,29.91
2018-09-18T14:16:10.410Z,30.27
2018-09-18T14:18:38.875Z,30.59
2018-09-18T14:21:07.714Z,30.83
2018-09-18T14:23:36.099Z,30.84
2018-09-18T14:26:04.562Z,30.57
2018-09-18T14:28:32.951Z,30.41
2018-09-18T14:31:01.372Z,30.38
2018-09-18T14:33:29.733Z,30.23
2018-09-18T14:35:58.142Z,29.84
2018-09-18T14:38:26.547Z,29.48
2018-09-18T14:40:54.969Z,29.31
2018-09-18T14:43:23.357Z,29.34
2018-09-18T14:45:51.757Z,29.64
2018-09-18T14:48:20.127Z,29.53
2018-09-18T14:50:48.541Z,29.37
2018-09-18T14:53:16.912Z,29.18
2018-09-18T14:55:45.420Z,28.98
2018-09-18T14:58:13.809Z,28.93
2018-09-18T15:00:42.453Z,28.87
2018-09-18T15:03:10.830Z,28.75
2018-09-18T15:05:39.322Z,28.68
2018-09-18T15:08:07.693Z,28.76
2018-09-18T15:10:36.261Z,29.14
2018-09-18T15:13:04.741Z,29.30
2018-09-18T15:15:33.204Z,29.19
2018-09-18T15:18:01.925Z,29.01
2018-09-18T15:20:30.412Z,28.87
2018-09-18T15:22:58.917Z,28.70
2018-09-18T15:25:27.291Z,29.52
2018-09-18T15:27:56.040Z,30.22
2018-09-18T15:30:24.418Z,30.22
2018-09-18T15:32:52.821Z,31.77
2018-09-18T15:35:21.338Z,34.44
2018-09-18T15:37:50.042Z,36.54
2018-09-18T15:40:18.509Z,37.58
2018-09-18T15:42:48.158Z,38.87
2018-09-18T15:45:16.570Z,39.90
2018-09-18T15:47:44.999Z,39.13
2018-09-18T15:50:13.429Z,37.98
2018-09-18T15:52:41.841Z,36.45
2018-09-18T15:55:10.290Z,34.47
2018-09-18T15:57:39.698Z,32.73
2018-09-18T16:00:08.051Z,31.26
2018-09-18T16:02:36.477Z,30.02
2018-09-18T16:05:04.979Z,29.31
2018-09-18T16:07:34.817Z,28.73
2018-09-18T16:10:03.770Z,28.25
2018-09-18T16:12:32.146Z,27.88
2018-09-18T16:15:00.617Z,27.61
2018-09-18T16:17:29.010Z,27.41
2018-09-18T16:19:57.502Z,27.25
2018-09-18T16:22:25.974Z,26.98
2018-09-18T16:24:54.419Z,26.75
2018-09-18T16:27:22.753Z,26.48
2018-09-18T16:29:51.239Z,26.25
2018-09-18T16:32:19.617Z,26.10
2018-09-18T16:34:48.021Z,25.90
2018-09-18T16:37:16.415Z,25.73
2018-09-18T16:39:44.817Z,25.65
2018-09-18T16:42:13.219Z,25.55
2018-09-18T16:44:41.629Z,25.48
2018-09-18T16:47:10.015Z,25.39
2018-09-18T16:49:38.425Z,25.34
2018-09-18T16:54:35.314Z,25.23
2018-09-18T16:57:03.596Z,25.19
2018-09-18T16:59:32.023Z,25.03
2018-09-18T17:02:00.439Z,24.97
2018-09-18T17:04:28.895Z,24.89
2018-09-18T17:06:57.303Z,24.70
2018-09-18T17:09:25.701Z,24.55
2018-09-18T17:11:54.116Z,24.45
2018-09-18T17:14:22.619Z,24.36
2018-09-18T17:16:51.301Z,24.11
2018-09-18T17:19:19.710Z,23.96
2018-09-18T17:21:48.169Z,23.90
2018-09-18T17:24:16.564Z,23.83
2018-09-18T17:26:45.134Z,23.76
2018-09-18T17:29:13.676Z,23.70
2018-09-18T17:31:42.079Z,23.65
2018-09-18T17:34:10.547Z,23.55
2018-09-18T17:36:39.125Z,23.48
2018-09-18T17:39:09.261Z,23.29
2018-09-18T17:41:37.767Z,23.18
2018-09-18T17:44:06.420Z,23.04
2018-09-18T17:46:34.994Z,22.95
2018-09-18T17:49:03.700Z,22.65
2018-09-18T17:51:32.205Z,22.49
2018-09-18T17:54:00.622Z,22.32
2018-09-18T17:56:29.219Z,22.21
2018-09-18T17:58:57.761Z,22.08
2018-09-18T18:01:26.579Z,21.94
2018-09-18T18:03:55.026Z,21.74
2018-09-18T18:06:23.523Z,21.62
2018-09-18T18:08:52.629Z,21.53
2018-09-18T18:11:21.063Z,21.39
2018-09-18T18:13:49.515Z,21.26
2018-09-18T18:16:17.997Z,21.14
2018-09-18T18:18:46.531Z,21.13
2018-09-18T18:21:15.023Z,21.03
2018-09-18T18:23:43.514Z,20.89
2018-09-18T18:26:12.018Z,20.79
2018-09-18T18:28:40.796Z,20.75
2018-09-18T18:31:09.237Z,20.79
2018-09-18T18:33:37.722Z,20.76
2018-09-18T18:36:06.221Z,20.78
2018-09-18T18:38:34.806Z,20.83
2018-09-18T18:41:03.714Z,21.02
2018-09-18T18:43:32.197Z,21.03
2018-09-18T18:46:00.610Z,21.05
2018-09-18T18:48:29.141Z,20.90
2018-09-18T18:50:57.554Z,20.79
2018-09-18T18:53:26.005Z,20.79
2018-09-18T18:55:54.725Z,20.63
2018-09-18T19:01:10.300Z,20.60
2018-09-18T19:03:38.752Z,20.57
2018-09-18T19:06:07.457Z,20.60
2018-09-18T19:08:35.983Z,20.58
2018-09-18T19:11:05.102Z,20.54
2018-09-18T19:13:34.414Z,20.50
2018-09-18T19:16:02.946Z,20.55
2018-09-18T19:18:31.425Z,20.59
2018-09-18T19:21:00.136Z,20.57
2018-09-18T19:23:28.644Z,20.57
2018-09-18T19:25:57.868Z,20.57
2018-09-18T19:28:26.235Z,20.51
2018-09-18T19:30:54.771Z,20.46
2018-09-18T19:33:25.280Z,20.36
2018-09-18T19:35:54.472Z,20.25
2018-09-18T19:38:24.761Z,20.24
2018-09-18T19:40:53.396Z,20.08
2018-09-18T19:43:21.954Z,19.97
2018-09-18T19:45:50.328Z,19.91
2018-09-18T19:48:18.754Z,19.96
2018-09-18T19:50:47.613Z,19.95
2018-09-18T19:53:16.047Z,20.11
2018-09-18T19:55:44.525Z,20.23
2018-09-18T19:58:14.237Z,20.14
2018-09-18T20:00:42.739Z,20.14
2018-09-18T20:03:11.209Z,20.04
2018-09-18T20:05:39.658Z,19.94
2018-09-18T20:08:08.150Z,19.89
2018-09-18T20:10:36.573Z,19.85
2018-09-18T20:13:05.067Z,19.81
2018-09-18T20:15:33.454Z,19.76
2018-09-18T20:18:02.713Z,19.73
2018-09-18T20:20:31.140Z,19.70
2018-09-18T20:22:59.560Z,19.76
2018-09-18T20:25:27.950Z,19.72
2018-09-18T20:27:56.372Z,19.77
2018-09-18T20:30:24.774Z,19.80
2018-09-18T20:32:53.249Z,19.82
2018-09-18T20:35:21.649Z,19.83
2018-09-18T20:37:50.091Z,19.85
2018-09-18T20:40:18.509Z,19.91
2018-09-18T20:42:46.940Z,19.94
2018-09-18T20:45:15.388Z,19.88
2018-09-18T20:47:43.877Z,19.82
2018-09-18T20:50:12.334Z,19.85
2018-09-18T20:52:40.748Z,19.75
2018-09-18T20:55:09.601Z,19.69
2018-09-18T20:57:38.013Z,19.63
2018-09-18T21:00:06.697Z,19.67
2018-09-18T21:02:41.941Z,19.67
2018-09-18T21:05:10.753Z,19.65
2018-09-18T21:07:39.163Z,19.70
2018-09-18T21:10:07.603Z,19.63
2018-09-18T21:12:36.010Z,19.61
2018-09-18T21:15:04.473Z,19.57
2018-09-18T21:17:32.906Z,19.59
2018-09-18T21:20:01.521Z,19.54
2018-09-18T21:22:29.988Z,19.63
2018-09-18T21:25:09.758Z,19.72
2018-09-18T21:27:38.175Z,19.70
2018-09-18T21:30:06.718Z,19.71
2018-09-18T21:32:35.347Z,19.71
2018-09-18T21:35:04.365Z,19.63
2018-09-18T21:37:33.117Z,19.59
2018-09-18T21:40:01.552Z,19.49
2018-09-18T21:42:29.973Z,19.41
2018-09-18T21:44:58.422Z,19.39
2018-09-18T21:47:27.118Z,19.40
2018-09-18T21:49:55.573Z,19.34
2018-09-18T21:52:24.282Z,19.29
2018-09-18T21:54:52.789Z,19.30
2018-09-18T21:57:21.215Z,19.36
2018-09-18T21:59:49.717Z,19.34
2018-09-18T22:02:18.158Z,19.30
2018-09-18T22:04:46.553Z,19.32
2018-09-18T22:07:15.016Z,19.47
2018-09-18T22:09:43.577Z,19.46
2018-09-18T22:12:12.003Z,19.54
2018-09-18T22:14:40.431Z,19.55
2018-09-18T22:17:08.931Z,19.63
2018-09-18T22:19:37.293Z,19.68
2018-09-18T22:22:05.831Z,19.67
2018-09-18T22:24:34.218Z,19.73
2018-09-18T22:27:02.711Z,19.73
2018-09-18T22:29:31.115Z,19.77
2018-09-18T22:31:59.571Z,19.79
2018-09-18T22:34:28.019Z,19.84
2018-09-18T22:36:56.446Z,19.91
2018-09-18T22:39:24.853Z,19.94
2018-09-18T22:41:53.298Z,19.94
2018-09-18T22:44:21.728Z,19.83
2018-09-18T22:46:50.181Z,19.67
2018-09-18T22:49:18.601Z,19.59
2018-09-18T22:51:47.073Z,19.49
2018-09-18T22:54:15.473Z,19.46
2018-09-18T22:56:43.877Z,19.48
2018-09-18T22:59:12.332Z,19.43
2018-09-18T23:01:40.754Z,19.47
2018-09-18T23:04:09.226Z,19.56
2018-09-18T23:06:37.654Z,19.58
2018-09-18T23:09:07.737Z,19.68
2018-09-18T23:11:36.146Z,19.79
2018-09-18T23:14:05.005Z,19.83
2018-09-18T23:16:33.589Z,19.87
2018-09-18T23:19:02.258Z,19.91
2018-09-18T23:21:30.723Z,19.90
2018-09-18T23:23:59.169Z,19.89
2018-09-18T23:26:27.583Z,19.90
2018-09-18T23:28:56.049Z,19.83
2018-09-18T23:31:24.565Z,19.83
2018-09-18T23:33:53.004Z,19.87
2018-09-18T23:36:21.401Z,19.92
2018-09-18T23:38:49.838Z,19.82
2018-09-18T23:41:18.350Z,19.72
2018-09-18T23:43:46.798Z,19.63
2018-09-18T23:46:15.189Z,19.53
2018-09-18T23:48:43.627Z,19.39
2018-09-18T23:51:12.072Z,19.36
2018-09-18T23:53:40.503Z,19.36
2018-09-18T23:56:08.946Z,19.42
2018-09-18T23:58:37.364Z,19.55
